Terminal Aerodrome Forecast
Issued by NWS

Current Version | Previous Version | Graphics & Text | Print | Product List | Glossary On
Versions: 1 2 3 4 5 6 7 8 9 10 11 12 13 14 15 16 17 18 19 20 21 22 23
000
FTUS41 KPBZ 031700 RRA
TAFMGW
TAF
KMGW 031741Z 0318/0418 16006KT P6SM OVC030
     FM032200 17005KT 6SM -RA OVC035
     FM040200 20009KT 2SM -RA BR OVC008
     FM041200 VRB04KT 2SM -RA BR OVC010=

USA.gov is the U.S. government's official web portal to all federal, state and local government web resources and services.